Time;durP1;ratioP1;P1;durP2;ratioP2;P2;SDS_P1;SDS_P2;PMS_P1;PMS_P2;Temp;Humidity;BMP_temperature;BMP_pressure;BME280_temperature;BME280_humidity;BME280_pressure;Samples;Min_cycle;Max_cycle;Signal;HPM_P1;HPM_P2
2022/11/26 00:01:32;;;;;;;;;;;10.30;99.90;;;;;;7791509;22;19960;-84
2022/11/26 00:04:35;;;;;;;;;;;9.40;99.90;;;;;;7791504;22;19970;-85
2022/11/26 00:07:37;;;;;;;;;;;9.30;99.90;;;;;;7791603;22;19915;-85
2022/11/26 00:10:39;;;;;;;;;;;9.30;99.90;;;;;;7789455;22;20384;-84
2022/11/26 00:13:41;;;;;;;;;;;9.20;99.90;;;;;;7796025;22;19961;-85
2022/11/26 00:16:42;;;;;;;;;;;10.20;99.90;;;;;;7791585;22;19915;-84
2022/11/26 00:19:45;;;;;;;;;;;9.20;99.90;;;;;;7791946;22;19954;-84
2022/11/26 00:22:49;;;;;;;;;;;9.30;99.90;;;;;;7791624;22;19915;-84
2022/11/26 00:25:52;;;;;;;;;;;9.30;99.90;;;;;;7789586;22;19915;-84
2022/11/26 00:28:55;;;;;;;;;;;9.40;99.90;;;;;;7790747;22;20388;-84
2022/11/26 00:31:56;;;;;;;;;;;9.50;99.90;;;;;;7790873;22;19919;-85
2022/11/26 00:34:59;;;;;;;;;;;9.60;99.90;;;;;;7791779;22;20231;-84
2022/11/26 00:38:01;;;;;;;;;;;9.60;99.90;;;;;;7790632;22;19915;-85
2022/11/26 00:41:02;;;;;;;;;;;9.60;99.90;;;;;;7791171;22;19915;-84
2022/11/26 00:44:04;;;;;;;;;;;10.40;99.90;;;;;;7791102;22;19955;-84
2022/11/26 00:47:06;;;;;;;;;;;9.70;99.90;;;;;;7791692;22;19981;-84
2022/11/26 00:53:28;;;;;;;;;;;9.70;99.90;;;;;;7789344;22;20286;-85
2022/11/26 00:56:31;;;;;;;;;;;10.40;99.90;;;;;;7791542;22;19946;-85
2022/11/26 00:59:32;;;;;;;;;;;9.80;99.90;;;;;;7790483;22;19916;-84
2022/11/26 01:02:34;;;;;;;;;;;9.80;99.90;;;;;;7790022;22;19922;-83
2022/11/26 01:05:37;;;;;;;;;;;9.90;99.90;;;;;;7797831;22;19982;-83
2022/11/26 01:08:38;;;;;;;;;;;9.90;99.90;;;;;;7791971;22;19978;-83
2022/11/26 01:11:40;;;;;;;;;;;9.90;99.90;;;;;;7805573;22;19915;-83
2022/11/26 01:14:42;;;;;;;;;;;9.90;99.90;;;;;;7790329;22;19951;-83
2022/11/26 01:17:44;;;;;;;;;;;9.90;99.90;;;;;;7795694;22;19967;-83
2022/11/26 01:20:47;;;;;;;;;;;10.40;99.90;;;;;;7793369;22;19915;-83
2022/11/26 01:23:49;;;;;;;;;;;9.90;99.90;;;;;;7793842;22;19946;-83
2022/11/26 01:26:51;;;;;;;;;;;10.30;99.90;;;;;;7794396;22;19915;-83
2022/11/26 01:29:52;;;;;;;;;;;9.90;99.90;;;;;;7794883;22;19981;-83
2022/11/26 01:32:54;;;;;;;;;;;9.80;99.90;;;;;;7796113;22;19947;-83
2022/11/26 01:35:57;;;;;;;;;;;9.80;99.90;;;;;;7795769;22;19994;-83
2022/11/26 01:38:59;;;;;;;;;;;9.80;99.90;;;;;;7795071;22;19990;-82
2022/11/26 01:42:05;;;;;;;;;;;10.20;99.90;;;;;;7795468;22;19986;-82
2022/11/26 01:45:14;;;;;;;;;;;9.80;99.90;;;;;;7801074;22;19915;-82
2022/11/26 01:51:43;;;;;;;;;;;9.90;99.90;;;;;;7802979;22;19922;-83
2022/11/26 01:54:46;;;;;;;;;;;9.90;99.90;;;;;;7794953;22;19915;-83
2022/11/26 01:57:48;;;;;;;;;;;9.90;99.90;;;;;;7794396;22;20014;-83
2022/11/26 02:00:50;;;;;;;;;;;10.30;99.90;;;;;;7795682;22;20038;-83
2022/11/26 02:03:55;;;;;;;;;;;9.90;99.90;;;;;;7796228;22;20345;-83
2022/11/26 02:06:59;;;;;;;;;;;9.90;99.90;;;;;;7797677;22;20543;-83
2022/11/26 02:10:00;;;;;;;;;;;9.90;99.90;;;;;;7799441;22;20387;-83
2022/11/26 02:13:02;;;;;;;;;;;9.90;99.90;;;;;;7801759;22;20329;-83
2022/11/26 02:16:08;;;;;;;;;;;9.80;99.90;;;;;;7800065;22;19915;-83
2022/11/26 02:19:21;;;;;;;;;;;9.30;99.90;;;;;;7804040;22;19926;-83
2022/11/26 02:22:34;;;;;;;;;;;9.90;99.90;;;;;;7799629;22;19982;-83
2022/11/26 02:25:52;;;;;;;;;;;9.90;99.90;;;;;;7781774;22;19937;-83
2022/11/26 02:29:03;;;;;;;;;;;9.90;99.90;;;;;;7804629;22;19942;-83
2022/11/26 02:32:08;;;;;;;;;;;9.90;99.90;;;;;;7798388;22;19915;-83
2022/11/26 02:35:14;;;;;;;;;;;9.90;99.90;;;;;;7799560;22;19925;-83
2022/11/26 02:38:18;;;;;;;;;;;9.90;99.90;;;;;;7796581;22;19915;-83
2022/11/26 02:41:32;;;;;;;;;;;9.90;99.90;;;;;;7797353;22;20390;-83
2022/11/26 02:44:39;;;;;;;;;;;10.20;99.90;;;;;;7806740;22;19915;-83
2022/11/26 02:47:44;;;;;;;;;;;9.90;99.90;;;;;;7798336;22;19993;-83
2022/11/26 02:50:48;;;;;;;;;;;9.90;99.90;;;;;;7798191;22;19919;-83
2022/11/26 02:53:51;;;;;;;;;;;9.80;99.90;;;;;;7798675;22;19986;-83
2022/11/26 02:56:53;;;;;;;;;;;9.80;99.90;;;;;;7799205;22;19915;-83
2022/11/26 02:59:54;;;;;;;;;;;9.80;99.90;;;;;;7797795;22;19990;-83
2022/11/26 03:03:01;;;;;;;;;;;9.70;99.90;;;;;;7797548;22;19986;-83
2022/11/26 03:06:05;;;;;;;;;;;9.70;99.90;;;;;;7797640;22;20407;-83
2022/11/26 03:09:07;;;;;;;;;;;9.70;99.90;;;;;;7797746;22;19982;-83
2022/11/26 03:12:09;;;;;;;;;;;9.70;99.90;;;;;;7799007;22;19922;-83
2022/11/26 03:15:11;;;;;;;;;;;9.70;99.90;;;;;;7798761;22;20218;-83
2022/11/26 03:18:14;;;;;;;;;;;9.70;99.90;;;;;;7793739;22;20318;-83
2022/11/26 03:21:15;;;;;;;;;;;9.70;99.90;;;;;;7794082;22;19990;-84
2022/11/26 03:24:17;;;;;;;;;;;10.00;99.90;;;;;;7794274;22;19985;-83
2022/11/26 03:27:18;;;;;;;;;;;9.80;99.90;;;;;;7794346;22;19990;-83
2022/11/26 03:30:20;;;;;;;;;;;9.60;99.90;;;;;;7793570;22;20028;-83
2022/11/26 03:33:23;;;;;;;;;;;9.60;99.90;;;;;;7793622;22;19922;-83
2022/11/26 03:36:25;;;;;;;;;;;9.50;99.90;;;;;;7793364;22;19915;-83
2022/11/26 03:39:26;;;;;;;;;;;9.70;99.90;;;;;;7794321;22;19990;-84
2022/11/26 03:42:28;;;;;;;;;;;9.70;99.90;;;;;;7794368;22;19915;-83
2022/11/26 03:45:29;;;;;;;;;;;9.50;99.90;;;;;;7795667;22;20033;-83
2022/11/26 03:48:32;;;;;;;;;;;9.50;99.90;;;;;;7793504;22;19922;-84
2022/11/26 03:51:34;;;;;;;;;;;9.50;99.90;;;;;;7794860;22;20346;-83
2022/11/26 03:54:36;;;;;;;;;;;9.50;99.90;;;;;;7794534;22;19922;-84
2022/11/26 03:57:37;;;;;;;;;;;9.50;99.90;;;;;;7793986;22;20318;-84
2022/11/26 04:00:39;;;;;;;;;;;9.50;99.90;;;;;;7794081;22;20384;-84
2022/11/26 04:03:42;;;;;;;;;;;9.90;99.90;;;;;;7785958;22;19922;-84
2022/11/26 04:06:43;;;;;;;;;;;9.50;99.90;;;;;;7790519;22;19941;-87
2022/11/26 04:09:45;;;;;;;;;;;9.50;99.90;;;;;;7790041;22;19915;-87
2022/11/26 04:12:46;;;;;;;;;;;9.40;99.90;;;;;;7811888;22;19969;-87
2022/11/26 04:15:48;;;;;;;;;;;10.10;99.90;;;;;;7829805;22;19919;-84
2022/11/26 04:18:51;;;;;;;;;;;9.40;99.90;;;;;;7829407;22;19915;-85
2022/11/26 04:21:53;;;;;;;;;;;9.30;99.90;;;;;;7828763;22;20040;-86
2022/11/26 04:24:54;;;;;;;;;;;10.00;99.90;;;;;;7829422;22;20366;-87
2022/11/26 04:27:56;;;;;;;;;;;9.20;99.90;;;;;;7833422;22;20029;-88
2022/11/26 04:30:58;;;;;;;;;;;9.10;99.90;;;;;;7831816;22;20334;-88
2022/11/26 04:34:00;;;;;;;;;;;9.00;99.90;;;;;;7829241;22;20352;-84
2022/11/26 04:37:02;;;;;;;;;;;8.90;99.90;;;;;;7829218;22;19951;-87
2022/11/26 04:40:04;;;;;;;;;;;9.50;99.90;;;;;;7837156;22;19921;-87
2022/11/26 04:43:09;;;;;;;;;;;8.60;99.90;;;;;;7828896;22;20002;-88
2022/11/26 04:46:11;;;;;;;;;;;8.50;99.90;;;;;;7709610;22;19919;-87
2022/11/26 04:49:14;;;;;;;;;;;8.30;99.90;;;;;;7822712;22;19915;-86
2022/11/26 04:52:16;;;;;;;;;;;9.00;99.90;;;;;;7828936;22;20269;-87
2022/11/26 04:55:18;;;;;;;;;;;8.20;99.90;;;;;;7829525;22;20296;-87
2022/11/26 04:58:20;;;;;;;;;;;8.90;99.90;;;;;;7825490;22;19986;-86
2022/11/26 05:01:25;;;;;;;;;;;8.10;99.90;;;;;;7829130;22;19919;-86
2022/11/26 05:04:40;;;;;;;;;;;8.00;99.90;;;;;;7825757;22;19922;-86
2022/11/26 05:07:42;;;;;;;;;;;7.90;99.90;;;;;;7828528;22;19996;-87
2022/11/26 05:10:44;;;;;;;;;;;9.20;99.90;;;;;;7829036;22;20012;-86
2022/11/26 05:13:45;;;;;;;;;;;7.70;99.90;;;;;;7828391;22;19915;-86
2022/11/26 05:16:47;;;;;;;;;;;7.60;99.90;;;;;;7828730;22;20392;-85
2022/11/26 05:19:50;;;;;;;;;;;7.60;99.90;;;;;;7827858;22;20360;-86
2022/11/26 05:22:54;;;;;;;;;;;7.50;99.90;;;;;;7829219;22;20005;-87
2022/11/26 05:25:59;;;;;;;;;;;7.50;99.90;;;;;;7827516;22;19994;-85
2022/11/26 05:29:00;;;;;;;;;;;7.50;99.90;;;;;;7827892;22;19987;-88
2022/11/26 05:32:02;;;;;;;;;;;7.50;99.90;;;;;;7829094;22;19921;-86
2022/11/26 05:35:05;;;;;;;;;;;7.50;99.90;;;;;;7829064;22;20253;-86
2022/11/26 05:38:10;;;;;;;;;;;7.60;99.90;;;;;;7830472;22;19914;-86
2022/11/26 05:41:14;;;;;;;;;;;8.50;99.90;;;;;;7825856;22;19918;-86
2022/11/26 05:44:16;;;;;;;;;;;7.70;99.90;;;;;;7826243;22;20200;-86
2022/11/26 05:47:18;;;;;;;;;;;7.80;99.90;;;;;;7829866;22;20507;-83
2022/11/26 05:50:21;;;;;;;;;;;7.90;99.90;;;;;;7831459;22;19997;-87
2022/11/26 05:53:23;;;;;;;;;;;8.00;99.90;;;;;;7831049;22;19915;-86
2022/11/26 05:56:24;;;;;;;;;;;8.00;99.90;;;;;;7841021;22;19922;-85
2022/11/26 05:59:26;;;;;;;;;;;8.10;99.90;;;;;;7843814;22;20009;-87
2022/11/26 06:02:28;;;;;;;;;;;8.30;99.90;;;;;;7829916;22;20345;-86
2022/11/26 06:05:30;;;;;;;;;;;8.20;99.90;;;;;;7826926;22;20338;-86
2022/11/26 06:08:32;;;;;;;;;;;8.30;99.90;;;;;;7829710;22;19967;-87
2022/11/26 06:11:34;;;;;;;;;;;8.30;99.90;;;;;;7844232;22;20326;-86
2022/11/26 06:14:46;;;;;;;;;;;8.40;99.90;;;;;;7831347;22;19915;-86
2022/11/26 06:17:48;;;;;;;;;;;8.40;99.90;;;;;;7832195;22;19982;-85
2022/11/26 06:20:51;;;;;;;;;;;8.40;99.90;;;;;;7833118;22;20290;-85
2022/11/26 06:23:52;;;;;;;;;;;8.50;99.90;;;;;;7832817;22;19919;-85
2022/11/26 06:26:54;;;;;;;;;;;8.50;99.90;;;;;;7833573;22;20364;-85
2022/11/26 06:29:56;;;;;;;;;;;8.50;99.90;;;;;;7832246;22;19915;-84
2022/11/26 06:32:57;;;;;;;;;;;8.60;99.90;;;;;;7833055;22;19986;-85
2022/11/26 06:36:01;;;;;;;;;;;8.60;99.90;;;;;;7835100;22;19986;-84
2022/11/26 06:39:02;;;;;;;;;;;9.90;99.90;;;;;;7844989;22;20006;-85
2022/11/26 06:42:04;;;;;;;;;;;8.60;99.90;;;;;;7832326;22;19996;-86
2022/11/26 06:45:06;;;;;;;;;;;8.60;99.90;;;;;;7833146;22;20353;-84
2022/11/26 06:48:08;;;;;;;;;;;8.60;99.90;;;;;;7834258;22;19927;-85
2022/11/26 06:51:11;;;;;;;;;;;8.70;99.90;;;;;;7834662;22;19985;-84
2022/11/26 06:54:13;;;;;;;;;;;8.60;99.90;;;;;;7833256;22;20336;-85
2022/11/26 06:57:15;;;;;;;;;;;8.60;99.90;;;;;;7832883;22;19974;-84
2022/11/26 07:00:17;;;;;;;;;;;8.60;99.90;;;;;;7833020;22;19982;-85
2022/11/26 07:03:18;;;;;;;;;;;8.60;99.90;;;;;;7832762;22;20013;-86
2022/11/26 07:06:22;;;;;;;;;;;8.60;99.90;;;;;;7832441;22;19921;-84
2022/11/26 07:09:23;;;;;;;;;;;8.50;99.90;;;;;;7852027;22;19964;-84
2022/11/26 07:12:26;;;;;;;;;;;8.50;99.90;;;;;;7847844;22;20527;-85
2022/11/26 07:15:27;;;;;;;;;;;8.60;99.90;;;;;;7838219;22;19958;-87
2022/11/26 07:18:29;;;;;;;;;;;8.60;99.90;;;;;;7835151;22;19978;-86
2022/11/26 07:21:32;;;;;;;;;;;9.10;99.90;;;;;;7835263;22;19915;-86
2022/11/26 07:24:33;;;;;;;;;;;8.50;99.90;;;;;;7832451;22;19990;-85
2022/11/26 07:27:35;;;;;;;;;;;8.50;99.90;;;;;;7832872;22;19958;-85
2022/11/26 07:30:37;;;;;;;;;;;8.60;99.90;;;;;;7831942;22;19963;-85
2022/11/26 07:33:38;;;;;;;;;;;8.70;99.90;;;;;;7832515;22;19914;-86
2022/11/26 07:36:42;;;;;;;;;;;8.70;99.90;;;;;;7832534;22;19989;-87
2022/11/26 07:39:43;;;;;;;;;;;8.80;99.90;;;;;;7831708;22;20258;-85
2022/11/26 07:42:45;;;;;;;;;;;8.80;99.90;;;;;;7831326;22;20313;-85
2022/11/26 07:45:47;;;;;;;;;;;8.80;99.90;;;;;;7830835;22;20015;-84
2022/11/26 07:48:49;;;;;;;;;;;8.80;99.90;;;;;;7830490;22;20455;-83
2022/11/26 07:51:52;;;;;;;;;;;8.80;99.90;;;;;;7832194;22;19989;-86
2022/11/26 07:54:53;;;;;;;;;;;8.90;99.90;;;;;;7832473;22;19914;-85
2022/11/26 07:57:56;;;;;;;;;;;8.90;99.90;;;;;;7830169;22;20003;-86
2022/11/26 08:00:57;;;;;;;;;;;8.90;99.90;;;;;;7838661;22;19915;-84
2022/11/26 08:03:59;;;;;;;;;;;9.10;99.90;;;;;;7829643;22;19925;-86
2022/11/26 08:07:03;;;;;;;;;;;9.00;99.90;;;;;;7831487;22;19922;-85
2022/11/26 08:10:05;;;;;;;;;;;9.10;99.90;;;;;;7828788;22;19966;-86
2022/11/26 08:13:07;;;;;;;;;;;9.40;99.90;;;;;;7830129;22;19986;-85
2022/11/26 08:16:09;;;;;;;;;;;9.60;99.90;;;;;;7830339;22;20008;-85
2022/11/26 08:19:12;;;;;;;;;;;10.40;99.90;;;;;;7829669;22;20389;-86
2022/11/26 08:22:15;;;;;;;;;;;9.80;99.90;;;;;;7829413;22;19922;-86
2022/11/26 08:25:17;;;;;;;;;;;9.80;99.90;;;;;;7829852;22;19997;-86
2022/11/26 08:28:19;;;;;;;;;;;9.80;99.90;;;;;;7829287;22;19986;-85
2022/11/26 08:31:21;;;;;;;;;;;9.90;99.90;;;;;;7830644;22;19915;-85
2022/11/26 08:34:22;;;;;;;;;;;10.00;99.90;;;;;;7830015;22;19939;-85
2022/11/26 08:37:29;;;;;;;;;;;11.10;99.90;;;;;;7827635;22;19926;-85
2022/11/26 08:40:36;;;;;;;;;;;10.20;99.90;;;;;;7838868;22;19978;-86
2022/11/26 08:43:38;;;;;;;;;;;10.30;99.90;;;;;;7830768;22;20001;-85
2022/11/26 08:46:40;;;;;;;;;;;10.40;99.90;;;;;;7829751;22;19994;-85
2022/11/26 08:49:42;;;;;;;;;;;11.50;99.90;;;;;;7829207;22;19915;-85
2022/11/26 08:52:46;;;;;;;;;;;11.10;99.90;;;;;;7829756;22;19982;-85
2022/11/26 08:55:48;;;;;;;;;;;10.80;99.90;;;;;;7842719;22;19988;-85
2022/11/26 08:58:50;;;;;;;;;;;10.80;99.90;;;;;;7829997;22;19914;-85
2022/11/26 09:01:52;;;;;;;;;;;10.90;99.90;;;;;;7828093;22;19919;-84
2022/11/26 09:04:54;;;;;;;;;;;11.00;99.90;;;;;;7829936;22;19918;-85
2022/11/26 09:07:58;;;;;;;;;;;11.00;99.90;;;;;;7828454;22;19922;-85
2022/11/26 09:11:00;;;;;;;;;;;12.10;99.90;;;;;;7829950;22;19941;-86
2022/11/26 09:14:09;;;;;;;;;;;11.60;99.90;;;;;;7828708;22;20554;-86
2022/11/26 09:17:11;;;;;;;;;;;11.10;99.90;;;;;;7834810;22;19915;-85
2022/11/26 09:20:12;;;;;;;;;;;11.40;99.90;;;;;;7828610;22;19934;-85
2022/11/26 09:23:15;;;;;;;;;;;11.00;99.90;;;;;;7830008;22;20002;-85
2022/11/26 09:26:20;;;;;;;;;;;11.20;99.90;;;;;;7830240;22;19935;-85
2022/11/26 09:29:22;;;;;;;;;;;11.10;99.90;;;;;;7828628;22;19918;-85
2022/11/26 09:32:24;;;;;;;;;;;11.20;99.90;;;;;;7828829;22;19985;-84
2022/11/26 09:35:25;;;;;;;;;;;12.00;99.90;;;;;;7830266;22;19921;-84
2022/11/26 09:38:28;;;;;;;;;;;11.60;99.90;;;;;;7828609;22;20338;-85
2022/11/26 09:41:34;;;;;;;;;;;11.60;99.90;;;;;;7829928;22;19985;-84
2022/11/26 09:44:41;;;;;;;;;;;11.60;99.90;;;;;;7830487;22;20326;-85
2022/11/26 09:47:44;;;;;;;;;;;11.70;99.90;;;;;;7830644;22;19922;-84
2022/11/26 09:50:49;;;;;;;;;;;11.70;99.90;;;;;;7825422;22;20074;-86
2022/11/26 09:53:55;;;;;;;;;;;11.90;99.90;;;;;;7831651;22;19915;-86
2022/11/26 09:57:00;;;;;;;;;;;12.10;99.90;;;;;;7832792;22;20382;-84
2022/11/26 10:00:03;;;;;;;;;;;12.30;99.90;;;;;;7830953;22;20425;-86
2022/11/26 10:03:11;;;;;;;;;;;12.50;99.90;;;;;;7786698;22;20250;-83
2022/11/26 10:06:22;;;;;;;;;;;12.50;99.90;;;;;;7793692;22;19955;-83
2022/11/26 10:09:35;;;;;;;;;;;12.60;99.90;;;;;;7792369;22;19915;-83
2022/11/26 10:12:42;;;;;;;;;;;12.70;99.90;;;;;;7808321;22;19915;-83
2022/11/26 10:15:49;;;;;;;;;;;12.80;99.90;;;;;;7837932;22;19919;-83
2022/11/26 10:18:55;;;;;;;;;;;13.00;99.90;;;;;;7842896;22;19989;-84
2022/11/26 10:21:58;;;;;;;;;;;13.00;99.90;;;;;;7841032;22;19986;-84
2022/11/26 10:25:02;;;;;;;;;;;13.00;99.90;;;;;;7839505;22;19982;-84
2022/11/26 10:28:12;;;;;;;;;;;13.00;99.90;;;;;;7839365;22;19989;-84
2022/11/26 10:31:20;;;;;;;;;;;13.00;99.90;;;;;;7843024;22;19959;-84
2022/11/26 10:34:26;;;;;;;;;;;13.10;99.90;;;;;;7842034;22;19915;-84
2022/11/26 10:37:28;;;;;;;;;;;13.20;99.90;;;;;;7844999;22;19921;-84
2022/11/26 10:40:32;;;;;;;;;;;13.20;99.90;;;;;;7834131;22;20335;-84
2022/11/26 10:43:33;;;;;;;;;;;13.10;99.90;;;;;;7843136;22;20349;-84
2022/11/26 10:46:36;;;;;;;;;;;13.00;99.90;;;;;;7838341;22;19946;-84
2022/11/26 10:49:37;;;;;;;;;;;12.90;99.90;;;;;;7840603;22;19915;-85
2022/11/26 10:52:39;;;;;;;;;;;12.90;99.90;;;;;;7854215;22;19941;-84
2022/11/26 10:55:43;;;;;;;;;;;12.90;99.90;;;;;;7841754;22;19989;-84
2022/11/26 10:58:45;;;;;;;;;;;12.80;99.90;;;;;;7836403;22;19930;-84
2022/11/26 11:01:47;;;;;;;;;;;12.90;99.90;;;;;;7839028;22;19963;-83
2022/11/26 11:04:49;;;;;;;;;;;13.00;99.90;;;;;;7841323;22;19921;-84
2022/11/26 11:07:53;;;;;;;;;;;13.40;99.90;;;;;;7841614;22;19990;-84
2022/11/26 11:10:57;;;;;;;;;;;13.80;99.90;;;;;;7840850;22;20361;-83
2022/11/26 11:13:58;;;;;;;;;;;14.20;99.90;;;;;;7839315;22;19954;-84
2022/11/26 11:17:00;;;;;;;;;;;14.70;99.90;;;;;;7842135;22;19958;-84
2022/11/26 11:20:06;;;;;;;;;;;15.00;99.90;;;;;;7838302;22;20374;-84
2022/11/26 11:23:18;;;;;;;;;;;15.10;99.90;;;;;;7841333;22;19914;-83
2022/11/26 11:26:22;;;;;;;;;;;15.00;99.90;;;;;;7841598;22;19921;-84
2022/11/26 11:29:25;;;;;;;;;;;15.10;99.90;;;;;;7840719;22;19979;-85
2022/11/26 11:32:32;;;;;;;;;;;15.50;99.90;;;;;;7841816;22;19978;-85
2022/11/26 11:35:34;;;;;;;;;;;15.60;99.90;;;;;;7840066;22;19918;-85
2022/11/26 11:38:45;;;;;;;;;;;15.60;99.90;;;;;;7840901;22;19940;-84
2022/11/26 11:41:49;;;;;;;;;;;15.60;99.90;;;;;;7842474;22;19921;-84
2022/11/26 11:44:51;;;;;;;;;;;15.60;99.90;;;;;;7840184;22;19978;-84
2022/11/26 11:47:55;;;;;;;;;;;15.60;99.90;;;;;;7837973;22;19977;-85
2022/11/26 11:51:02;;;;;;;;;;;15.60;99.90;;;;;;7834398;22;19951;-85
2022/11/26 11:54:12;;;;;;;;;;;15.60;99.90;;;;;;7832195;22;19914;-85
2022/11/26 11:57:20;;;;;;;;;;;15.50;99.90;;;;;;7835366;22;19977;-84
2022/11/26 12:00:23;;;;;;;;;;;15.60;99.90;;;;;;7837127;22;19998;-84
2022/11/26 12:03:46;;;;;;;;;;;16.00;99.90;;;;;;7841905;22;19950;-84
2022/11/26 12:06:54;;;;;;;;;;;16.20;99.40;;;;;;7841505;22;19994;-83
2022/11/26 12:10:01;;;;;;;;;;;16.20;99.20;;;;;;7841184;22;19982;-84
2022/11/26 12:13:05;;;;;;;;;;;16.30;98.70;;;;;;7840301;22;19993;-84
2022/11/26 12:16:09;;;;;;;;;;;16.40;98.90;;;;;;7847502;22;20326;-83
2022/11/26 12:19:15;;;;;;;;;;;16.20;98.10;;;;;;7840878;22;20022;-84
2022/11/26 12:22:20;;;;;;;;;;;15.90;98.00;;;;;;7847420;22;19953;-84
2022/11/26 12:25:26;;;;;;;;;;;15.90;98.40;;;;;;7845179;22;20205;-84
2022/11/26 12:28:31;;;;;;;;;;;16.20;98.50;;;;;;7842924;22;19916;-83
2022/11/26 12:31:36;;;;;;;;;;;16.40;98.20;;;;;;7842777;22;19929;-84
2022/11/26 12:34:40;;;;;;;;;;;16.70;98.00;;;;;;7840365;22;19990;-85
2022/11/26 12:37:42;;;;;;;;;;;17.00;98.00;;;;;;7836240;22;19915;-84
2022/11/26 12:40:45;;;;;;;;;;;17.20;97.70;;;;;;7837149;22;19950;-85
2022/11/26 12:43:52;;;;;;;;;;;17.10;97.20;;;;;;7832732;22;20412;-85
2022/11/26 12:46:56;;;;;;;;;;;16.90;97.00;;;;;;7837418;22;19969;-84
2022/11/26 12:50:02;;;;;;;;;;;16.70;97.00;;;;;;7835362;22;19982;-84
2022/11/26 12:53:11;;;;;;;;;;;16.60;96.90;;;;;;7837603;22;19922;-85
2022/11/26 12:56:17;;;;;;;;;;;16.50;96.90;;;;;;7831393;22;19998;-84
2022/11/26 12:59:23;;;;;;;;;;;16.30;96.50;;;;;;7850927;22;19957;-83
2022/11/26 13:02:26;;;;;;;;;;;16.10;96.50;;;;;;7837074;22;19934;-85
2022/11/26 13:05:31;;;;;;;;;;;16.10;96.60;;;;;;7839790;22;19985;-84
2022/11/26 13:08:41;;;;;;;;;;;16.00;96.50;;;;;;7847135;22;19918;-84
2022/11/26 13:11:49;;;;;;;;;;;16.10;96.50;;;;;;7839633;22;19982;-85
2022/11/26 13:14:53;;;;;;;;;;;16.30;96.30;;;;;;7837413;22;19967;-85
2022/11/26 13:17:57;;;;;;;;;;;16.40;96.10;;;;;;7836481;22;20029;-85
2022/11/26 13:21:05;;;;;;;;;;;16.40;95.90;;;;;;7837122;22;20061;-84
2022/11/26 13:24:20;;;;;;;;;;;16.30;95.70;;;;;;7836112;22;20001;-84
2022/11/26 13:27:28;;;;;;;;;;;16.30;95.50;;;;;;7840008;22;19946;-84
2022/11/26 13:30:34;;;;;;;;;;;16.20;95.40;;;;;;7839726;22;19986;-84
2022/11/26 13:33:48;;;;;;;;;;;16.10;95.30;;;;;;7842416;22;20335;-83
2022/11/26 13:37:10;;;;;;;;;;;16.10;95.40;;;;;;7845520;22;19959;-83
2022/11/26 13:40:25;;;;;;;;;;;16.00;95.30;;;;;;7818683;22;19942;-83
2022/11/26 13:43:33;;;;;;;;;;;16.00;95.30;;;;;;7808977;22;19937;-83
2022/11/26 13:46:37;;;;;;;;;;;15.90;95.10;;;;;;7775120;22;19927;-83
2022/11/26 13:49:39;;;;;;;;;;;15.90;95.10;;;;;;7765635;23;20394;-83
2022/11/26 13:52:43;;;;;;;;;;;15.70;95.20;;;;;;7765231;22;19954;-83
2022/11/26 13:55:48;;;;;;;;;;;15.70;95.30;;;;;;7764376;23;19943;-82
2022/11/26 13:58:53;;;;;;;;;;;15.70;95.40;;;;;;7762729;23;20323;-83
2022/11/26 14:01:56;;;;;;;;;;;15.70;95.50;;;;;;7762714;22;19970;-83
2022/11/26 14:04:57;;;;;;;;;;;15.70;95.20;;;;;;7763680;23;19995;-83
2022/11/26 14:08:29;;;;;;;;;;;15.60;95.10;;;;;;7762380;23;20382;-84
2022/11/26 14:11:49;;;;;;;;;;;15.50;95.40;;;;;;7767372;22;19915;-83
2022/11/26 14:14:51;;;;;;;;;;;15.40;94.80;;;;;;7762487;23;19977;-83
2022/11/26 14:17:56;;;;;;;;;;;15.10;94.70;;;;;;7760766;23;19943;-83
2022/11/26 14:21:13;;;;;;;;;;;14.80;94.60;;;;;;7764897;23;19922;-82
2022/11/26 14:24:35;;;;;;;;;;;14.50;95.00;;;;;;7768431;22;20383;-83
2022/11/26 14:27:39;;;;;;;;;;;14.40;95.00;;;;;;7768329;23;19959;-82
2022/11/26 14:30:41;;;;;;;;;;;14.10;94.80;;;;;;7765437;23;19951;-83
2022/11/26 14:33:45;;;;;;;;;;;13.90;94.90;;;;;;7759554;22;19938;-83
2022/11/26 14:36:54;;;;;;;;;;;13.70;94.90;;;;;;7759296;23;19962;-82
2022/11/26 14:40:02;;;;;;;;;;;13.60;95.00;;;;;;7765007;23;19998;-83
2022/11/26 14:43:09;;;;;;;;;;;13.50;94.90;;;;;;7766187;22;19959;-84
2022/11/26 14:46:12;;;;;;;;;;;13.40;94.90;;;;;;7766617;23;19919;-82
2022/11/26 14:49:18;;;;;;;;;;;13.40;94.90;;;;;;7764484;23;19947;-81
2022/11/26 14:52:21;;;;;;;;;;;13.30;94.80;;;;;;7739852;22;19982;-83
2022/11/26 14:55:24;;;;;;;;;;;13.20;94.70;;;;;;7764831;23;19963;-84
2022/11/26 14:58:29;;;;;;;;;;;13.20;94.70;;;;;;7760199;23;19919;-82
2022/11/26 15:01:32;;;;;;;;;;;13.10;94.70;;;;;;7765094;22;20306;-83
2022/11/26 15:04:37;;;;;;;;;;;13.00;94.60;;;;;;7764362;23;19959;-83
2022/11/26 15:07:42;;;;;;;;;;;12.90;94.60;;;;;;7764588;23;19920;-81
2022/11/26 15:10:47;;;;;;;;;;;12.70;94.60;;;;;;7766383;23;19920;-82
2022/11/26 15:13:48;;;;;;;;;;;12.40;94.60;;;;;;7761159;22;19978;-83
2022/11/26 15:16:54;;;;;;;;;;;12.30;94.70;;;;;;7749647;23;19948;-84
2022/11/26 15:19:59;;;;;;;;;;;12.10;94.70;;;;;;7758698;22;19915;-83
2022/11/26 15:23:02;;;;;;;;;;;11.80;94.80;;;;;;7761226;22;19931;-83
2022/11/26 15:26:04;;;;;;;;;;;11.50;94.80;;;;;;7759130;23;19926;-83
2022/11/26 15:29:22;;;;;;;;;;;11.30;94.90;;;;;;7757839;23;19949;-82
2022/11/26 15:32:26;;;;;;;;;;;11.30;95.00;;;;;;7771439;22;19991;-83
2022/11/26 15:35:29;;;;;;;;;;;10.70;95.10;;;;;;7759789;23;19923;-83
2022/11/26 15:38:31;;;;;;;;;;;10.40;95.20;;;;;;7762001;23;19922;-83
2022/11/26 15:41:38;;;;;;;;;;;10.10;95.40;;;;;;7763367;22;20343;-82
2022/11/26 15:44:40;;;;;;;;;;;9.80;95.50;;;;;;7763555;23;19951;-82
2022/11/26 15:47:45;;;;;;;;;;;9.60;95.60;;;;;;7764089;23;19919;-82
2022/11/26 15:50:49;;;;;;;;;;;9.40;95.70;;;;;;7762244;23;19983;-83
2022/11/26 15:53:51;;;;;;;;;;;9.70;95.90;;;;;;7761089;22;20351;-82
2022/11/26 15:56:55;;;;;;;;;;;9.00;95.80;;;;;;7762865;23;19978;-83
2022/11/26 15:59:58;;;;;;;;;;;8.90;95.90;;;;;;7760804;23;19950;-82
2022/11/26 16:03:00;;;;;;;;;;;8.70;96.00;;;;;;7759683;22;19943;-81
2022/11/26 16:06:05;;;;;;;;;;;8.60;96.10;;;;;;7756338;23;20290;-82
2022/11/26 16:09:23;;;;;;;;;;;8.40;96.10;;;;;;7756565;22;19915;-82
2022/11/26 16:12:29;;;;;;;;;;;8.30;96.30;;;;;;7757888;22;19943;-82
2022/11/26 16:15:31;;;;;;;;;;;8.20;96.30;;;;;;7772141;23;19915;-82
2022/11/26 16:18:35;;;;;;;;;;;8.00;96.40;;;;;;7755885;23;19990;-82
2022/11/26 16:21:39;;;;;;;;;;;7.90;96.50;;;;;;7757777;22;19998;-81
2022/11/26 16:24:42;;;;;;;;;;;7.70;96.60;;;;;;7750999;23;19915;-82
2022/11/26 16:28:00;;;;;;;;;;;7.60;96.60;;;;;;7755161;23;19998;-81
2022/11/26 16:31:02;;;;;;;;;;;7.50;96.70;;;;;;7757823;23;19915;-82
2022/11/26 16:34:04;;;;;;;;;;;7.40;96.90;;;;;;7741618;22;19994;-82
2022/11/26 16:37:17;;;;;;;;;;;7.30;96.90;;;;;;7752494;23;20019;-82
2022/11/26 16:40:19;;;;;;;;;;;7.10;97.30;;;;;;7746279;23;20002;-82
2022/11/26 16:43:21;;;;;;;;;;;7.10;97.10;;;;;;7733769;22;19943;-81
2022/11/26 16:46:23;;;;;;;;;;;7.00;97.10;;;;;;7747581;23;20366;-81
2022/11/26 16:49:25;;;;;;;;;;;6.90;97.10;;;;;;7754805;23;20294;-81
2022/11/26 16:52:28;;;;;;;;;;;6.80;97.20;;;;;;7750024;22;19978;-81
2022/11/26 16:55:30;;;;;;;;;;;6.70;97.20;;;;;;7744101;23;20282;-81
2022/11/26 16:58:32;;;;;;;;;;;6.70;97.30;;;;;;7750261;23;20310;-82
2022/11/26 17:01:34;;;;;;;;;;;6.60;97.30;;;;;;7759127;22;19920;-81
2022/11/26 17:04:36;;;;;;;;;;;6.50;97.40;;;;;;7759126;22;19931;-82
2022/11/26 17:07:41;;;;;;;;;;;6.40;97.50;;;;;;7758834;23;19915;-81
2022/11/26 17:10:43;;;;;;;;;;;6.40;97.50;;;;;;7744240;23;20406;-82
2022/11/26 17:13:44;;;;;;;;;;;6.30;97.60;;;;;;7739151;22;19919;-83
2022/11/26 17:16:46;;;;;;;;;;;6.20;97.60;;;;;;7748504;23;19959;-83
2022/11/26 17:19:47;;;;;;;;;;;6.10;97.60;;;;;;7752024;23;20247;-83
2022/11/26 17:22:53;;;;;;;;;;;6.00;97.80;;;;;;7761835;22;20004;-83
2022/11/26 17:25:55;;;;;;;;;;;5.90;97.80;;;;;;7757461;23;20035;-82
2022/11/26 17:28:57;;;;;;;;;;;5.80;97.90;;;;;;7766051;23;19982;-82
2022/11/26 17:31:59;;;;;;;;;;;5.80;98.20;;;;;;7770845;22;19915;-82
2022/11/26 17:35:04;;;;;;;;;;;5.80;98.00;;;;;;7759266;23;19983;-82
2022/11/26 17:38:13;;;;;;;;;;;6.40;98.30;;;;;;7759782;23;19915;-82
2022/11/26 17:41:23;;;;;;;;;;;5.80;98.20;;;;;;7761218;23;19919;-82
2022/11/26 17:44:25;;;;;;;;;;;5.90;98.20;;;;;;7760033;22;19923;-82
2022/11/26 17:47:31;;;;;;;;;;;6.10;98.10;;;;;;7761864;23;19991;-83
2022/11/26 17:50:37;;;;;;;;;;;6.20;98.10;;;;;;7762511;23;20004;-82
2022/11/26 17:53:47;;;;;;;;;;;6.40;97.90;;;;;;7766512;22;19923;-82
2022/11/26 17:56:55;;;;;;;;;;;6.50;97.90;;;;;;7755129;22;19916;-81
2022/11/26 18:00:01;;;;;;;;;;;6.60;97.90;;;;;;7765395;23;19946;-82
2022/11/26 18:03:10;;;;;;;;;;;6.70;97.80;;;;;;7768075;22;19930;-81
2022/11/26 18:06:32;;;;;;;;;;;6.80;98.00;;;;;;7764111;23;19986;-81